Terminal Aerodrome Forecast
Issued by NWS

Home | Current Version | Previous Version | Graphics & Text | Print | Product List | Glossary On
Versions: 1 2 3 4 5 6 7 8 9 10 11 12 13 14 15 16 17 18 19 20
018
FTUS41 KCLE 232320
TAFFDY
TAF
KFDY 232320Z 2400/2424 09005KT P6SM SCT200
     FM240200 09004KT P6SM BKN200
     FM241600 10008KT P6SM OVC050
     FM241700 11008KT P6SM -SHRA OVC045
     FM241800 11008KT P6SM -SHRA OVC025
     FM242100 10009KT 3SM -SHRA OVC015=

USA.gov is the U.S. government's official web portal to all federal, state and local government web resources and services.